Time;durP1;ratioP1;P1;durP2;ratioP2;P2;SDS_P1;SDS_P2;PMS_P1;PMS_P2;Temp;Humidity;BMP_temperature;BMP_pressure;BME280_temperature;BME280_humidity;BME280_pressure;Samples;Min_cycle;Max_cycle;Signal;HPM_P1;HPM_P2
2023/06/09 00:00:17;;;;;;;2.95;1.55;;;23.10;37.10;;;;;;2299752;55;21087;-72
2023/06/09 00:02:47;;;;;;;3.10;1.70;;;23.10;37.20;;;;;;2303856;55;20928;-71
2023/06/09 00:05:15;;;;;;;4.10;1.85;;;23.00;37.20;;;;;;2542601;54;21048;-72
2023/06/09 00:07:44;;;;;;;2.92;1.62;;;23.00;37.60;;;;;;2542498;54;20927;-71
2023/06/09 00:10:10;;;;;;;3.33;1.67;;;22.90;37.60;;;;;;2304904;55;20979;-71
2023/06/09 00:12:38;;;;;;;3.10;1.70;;;22.80;37.60;;;;;;2542886;54;21845;-70
2023/06/09 00:15:06;;;;;;;2.75;1.30;;;22.70;37.50;;;;;;2541425;54;21019;-71
2023/06/09 00:17:32;;;;;;;2.70;1.30;;;22.60;37.60;;;;;;2506650;54;21064;-71
2023/06/09 00:20:03;;;;;;;2.70;1.45;;;22.60;37.70;;;;;;2540500;54;21011;-71
2023/06/09 00:22:31;;;;;;;2.50;1.40;;;22.50;38.40;;;;;;2303265;55;21560;-71
2023/06/09 00:24:58;;;;;;;2.97;1.55;;;22.40;37.70;;;;;;2303028;55;21671;-72
2023/06/09 00:27:24;;;;;;;3.17;1.73;;;22.50;38.00;;;;;;2540962;54;21358;-72
2023/06/09 00:29:54;;;;;;;3.03;1.73;;;22.30;37.90;;;;;;2541257;54;21484;-71
2023/06/09 00:32:20;;;;;;;2.62;1.40;;;22.30;38.00;;;;;;2303427;55;20912;-71
2023/06/09 00:34:46;;;;;;;2.97;1.67;;;22.20;38.10;;;;;;2540198;54;20952;-70
2023/06/09 00:37:13;;;;;;;2.72;1.20;;;22.10;38.20;;;;;;2522579;54;21008;-71
2023/06/09 00:39:42;;;;;;;3.10;1.70;;;22.10;38.30;;;;;;2520396;54;21012;-72
2023/06/09 00:42:08;;;;;;;2.60;1.33;;;22.00;38.30;;;;;;2540993;54;21761;-71
2023/06/09 00:44:35;;;;;;;2.55;1.33;;;22.00;38.40;;;;;;2303443;55;21482;-71
2023/06/09 00:47:06;;;;;;;2.75;1.50;;;21.90;38.40;;;;;;2540292;54;21307;-72
2023/06/09 00:49:33;;;;;;;3.00;1.45;;;21.80;38.60;;;;;;2541842;54;21015;-70
2023/06/09 00:51:59;;;;;;;3.40;1.60;;;21.80;38.60;;;;;;2302187;55;20964;-70
2023/06/09 00:54:26;;;;;;;3.42;1.67;;;21.70;38.60;;;;;;2513617;54;21016;-71
2023/06/09 00:56:55;;;;;;;3.42;1.80;;;21.60;38.60;;;;;;2532348;54;20920;-70
2023/06/09 00:59:21;;;;;;;2.90;1.65;;;21.60;38.70;;;;;;2302646;55;20957;-71
2023/06/09 01:01:48;;;;;;;3.53;1.77;;;21.40;38.70;;;;;;2540173;54;20936;-71
2023/06/09 01:04:18;;;;;;;3.40;1.83;;;21.50;39.00;;;;;;2541210;54;20964;-71
2023/06/09 01:07:09;;;;;;;3.17;1.60;;;21.40;39.20;;;;;;2302965;55;21076;-70
2023/06/09 01:09:56;;;;;;;3.05;1.75;;;21.30;39.50;;;;;;2540870;54;20944;-70
2023/06/09 01:14:00;;;;;;;3.40;1.80;;;21.30;39.40;;;;;;2303567;55;20980;-72
2023/06/09 01:16:52;;;;;;;2.58;1.30;;;21.20;39.60;;;;;;2540670;54;21020;-71
2023/06/09 01:19:31;;;;;;;2.70;1.50;;;21.20;39.30;;;;;;2541207;54;20927;-71
2023/06/09 01:22:05;;;;;;;2.85;1.45;;;21.10;39.60;;;;;;2540041;54;20988;-71
2023/06/09 01:24:47;;;;;;;3.47;2.12;;;21.00;39.40;;;;;;2303135;55;20955;-71
2023/06/09 01:27:16;;;;;;;3.30;1.67;;;21.00;40.20;;;;;;2303407;55;20956;-72
2023/06/09 01:29:43;;;;;;;3.65;2.10;;;20.90;39.80;;;;;;2303250;55;20983;-68
2023/06/09 01:32:10;;;;;;;3.03;1.62;;;20.90;39.80;;;;;;2539852;54;20928;-76
2023/06/09 01:34:37;;;;;;;3.50;1.60;;;20.80;39.90;;;;;;2540731;54;20953;-70
2023/06/09 01:37:04;;;;;;;3.00;1.55;;;20.80;40.00;;;;;;2540054;54;20968;-70
2023/06/09 01:39:31;;;;;;;3.30;1.80;;;20.70;40.00;;;;;;2303878;55;21133;-72
2023/06/09 01:41:58;;;;;;;2.90;1.65;;;20.70;40.10;;;;;;2302803;55;20951;-74
2023/06/09 01:44:25;;;;;;;3.65;1.95;;;20.60;40.10;;;;;;2303227;55;20936;-70
2023/06/09 01:46:52;;;;;;;4.45;1.90;;;20.60;40.20;;;;;;2539369;54;20996;-71
2023/06/09 01:49:24;;;;;;;3.50;2.10;;;20.60;40.60;;;;;;2302122;55;21010;-71
2023/06/09 01:51:52;;;;;;;3.15;1.75;;;20.50;41.40;;;;;;2538789;54;21013;-70
2023/06/09 01:54:25;;;;;;;3.62;2.08;;;20.50;40.70;;;;;;2303840;55;21998;-71
2023/06/09 01:56:58;;;;;;;3.62;2.20;;;20.40;41.10;;;;;;2291721;55;21073;-75
2023/06/09 01:59:28;;;;;;;3.08;1.67;;;20.40;41.10;;;;;;2492984;54;21015;-72
2023/06/09 02:01:54;;;;;;;3.00;1.73;;;20.30;40.80;;;;;;2298324;55;20956;-70
2023/06/09 02:04:21;;;;;;;4.37;1.98;;;20.30;40.90;;;;;;2510243;53;21440;-70
2023/06/09 02:06:48;;;;;;;3.22;1.73;;;20.20;40.90;;;;;;2551919;53;21402;-73
2023/06/09 02:09:14;;;;;;;3.40;2.00;;;20.20;41.00;;;;;;2313218;54;20988;-68
2023/06/09 02:11:41;;;;;;;3.62;2.03;;;20.20;41.10;;;;;;2298914;54;20974;-69
2023/06/09 02:14:08;;;;;;;3.33;1.80;;;20.10;41.10;;;;;;2521581;54;21891;-70
2023/06/09 02:16:35;;;;;;;3.40;2.00;;;20.00;41.30;;;;;;2527966;54;21002;-73
2023/06/09 02:19:02;;;;;;;4.22;2.40;;;20.00;41.30;;;;;;2286398;54;20934;-70
2023/06/09 02:21:31;;;;;;;4.50;2.47;;;19.90;41.30;;;;;;2286532;54;20961;-75
2023/06/09 02:23:58;;;;;;;3.35;1.95;;;19.90;41.50;;;;;;2287880;54;21037;-70
2023/06/09 02:26:25;;;;;;;3.58;2.10;;;19.90;41.60;;;;;;2521938;54;21491;-74
2023/06/09 02:28:51;;;;;;;3.40;1.92;;;19.80;41.60;;;;;;2287384;54;20934;-70
2023/06/09 02:31:18;;;;;;;3.25;1.85;;;19.70;41.60;;;;;;2300152;54;21003;-73
2023/06/09 02:33:45;;;;;;;3.47;1.90;;;19.70;41.80;;;;;;2313382;54;20947;-70
2023/06/09 02:36:15;;;;;;;3.47;2.00;;;19.60;41.80;;;;;;2553255;53;21071;-69
2023/06/09 02:38:42;;;;;;;4.97;1.92;;;19.70;42.10;;;;;;2313615;54;20983;-70
2023/06/09 02:41:08;;;;;;;3.25;1.98;;;19.50;41.90;;;;;;2313106;54;20988;-72
2023/06/09 02:43:35;;;;;;;3.50;1.92;;;19.50;42.10;;;;;;2552058;53;21845;-70
2023/06/09 02:46:01;;;;;;;4.75;2.03;;;19.40;42.10;;;;;;2552757;53;20916;-71
2023/06/09 02:48:28;;;;;;;3.40;1.85;;;19.40;42.10;;;;;;2313951;54;20924;-69
2023/06/09 02:50:55;;;;;;;3.20;1.67;;;19.40;42.20;;;;;;2312990;54;21410;-70
2023/06/09 02:53:21;;;;;;;3.22;1.95;;;19.30;42.20;;;;;;2553478;53;21821;-70
2023/06/09 02:55:48;;;;;;;3.90;2.30;;;19.30;42.30;;;;;;2313361;54;20971;-70
2023/06/09 02:58:15;;;;;;;4.05;2.25;;;19.20;42.50;;;;;;2313580;54;20956;-71
2023/06/09 03:00:44;;;;;;;3.67;2.08;;;19.20;42.60;;;;;;2553972;53;21039;-71
2023/06/09 03:03:12;;;;;;;3.80;2.08;;;19.10;42.60;;;;;;2301466;54;21529;-73
2023/06/09 03:05:43;;;;;;;3.47;2.03;;;19.10;42.70;;;;;;2530078;54;21011;-70
2023/06/09 03:08:12;;;;;;;4.12;2.20;;;19.10;42.70;;;;;;2280885;55;20932;-70
2023/06/09 03:10:38;;;;;;;3.97;1.98;;;19.00;42.80;;;;;;2302514;55;20992;-70
2023/06/09 03:13:04;;;;;;;3.28;1.90;;;19.00;42.80;;;;;;2304206;55;20997;-70
2023/06/09 03:15:31;;;;;;;3.12;1.98;;;18.90;42.80;;;;;;2542126;54;21012;-71
2023/06/09 03:17:57;;;;;;;4.47;2.58;;;18.90;43.00;;;;;;2542678;54;20960;-71
2023/06/09 03:20:27;;;;;;;3.60;2.20;;;18.90;43.30;;;;;;2542444;54;20960;-73
2023/06/09 03:22:54;;;;;;;3.30;2.08;;;18.90;43.50;;;;;;2541909;54;21004;-69
2023/06/09 03:25:20;;;;;;;3.85;2.22;;;18.80;43.50;;;;;;2283755;55;21825;-70
2023/06/09 03:27:51;;;;;;;3.37;2.03;;;18.80;43.60;;;;;;2303056;55;21443;-70
2023/06/09 03:30:17;;;;;;;3.42;1.90;;;18.80;43.60;;;;;;2505212;54;20982;-70
2023/06/09 03:32:44;;;;;;;3.40;1.80;;;18.80;43.60;;;;;;2300845;55;21036;-70
2023/06/09 03:35:12;;;;;;;3.62;1.98;;;18.80;43.60;;;;;;2542310;54;20996;-70
2023/06/09 03:37:38;;;;;;;4.12;2.05;;;18.70;43.50;;;;;;2304523;55;20932;-69
2023/06/09 03:40:05;;;;;;;3.95;2.00;;;18.70;43.60;;;;;;2541118;54;20957;-70
2023/06/09 03:42:31;;;;;;;3.00;1.70;;;18.70;43.70;;;;;;2304346;55;21502;-73
2023/06/09 03:44:58;;;;;;;3.87;2.10;;;18.70;43.70;;;;;;2303301;55;21008;-72
2023/06/09 03:47:26;;;;;;;3.50;1.90;;;18.70;43.70;;;;;;2304602;55;20932;-73
2023/06/09 03:49:52;;;;;;;4.18;2.10;;;18.70;43.80;;;;;;2304646;55;20940;-71
2023/06/09 03:52:21;;;;;;;3.42;2.10;;;18.60;43.80;;;;;;2304947;55;20932;-70
2023/06/09 03:54:48;;;;;;;4.07;2.05;;;18.60;43.80;;;;;;2281211;55;21047;-71
2023/06/09 03:57:15;;;;;;;3.30;2.10;;;18.60;43.90;;;;;;2304506;55;20960;-70
2023/06/09 03:59:41;;;;;;;3.45;2.10;;;18.60;44.00;;;;;;2304862;55;20959;-70
2023/06/09 04:02:08;;;;;;;3.47;1.95;;;18.50;44.10;;;;;;2542197;54;20916;-74
2023/06/09 04:04:35;;;;;;;3.35;2.22;;;18.50;44.20;;;;;;2541288;54;21335;-70
2023/06/09 04:07:01;;;;;;;4.40;2.70;;;18.50;44.30;;;;;;2298756;55;20972;-70
2023/06/09 04:09:29;;;;;;;3.50;1.85;;;18.40;44.50;;;;;;2523516;54;22153;-70
2023/06/09 04:11:59;;;;;;;3.58;2.10;;;18.40;44.70;;;;;;2529486;54;21072;-71
2023/06/09 04:14:25;;;;;;;4.00;2.25;;;18.40;44.60;;;;;;2299358;55;21044;-69
2023/06/09 04:16:51;;;;;;;3.47;2.08;;;18.40;44.70;;;;;;2534217;54;21044;-70
2023/06/09 04:19:18;;;;;;;4.00;2.25;;;18.40;44.80;;;;;;2278751;55;20970;-72
2023/06/09 04:21:45;;;;;;;3.85;2.08;;;18.30;44.80;;;;;;2519583;54;20952;-70
2023/06/09 04:24:14;;;;;;;3.42;1.95;;;18.30;44.80;;;;;;2287099;55;20970;-69
2023/06/09 04:26:43;;;;;;;3.62;2.10;;;18.30;44.90;;;;;;2535402;54;20949;-70
2023/06/09 04:29:12;;;;;;;3.65;2.08;;;18.30;45.00;;;;;;2533736;54;21012;-70
2023/06/09 04:31:42;;;;;;;3.75;2.17;;;18.30;45.00;;;;;;2518345;54;21015;-72
2023/06/09 04:34:10;;;;;;;5.18;2.67;;;18.30;45.20;;;;;;2300135;55;21029;-70
2023/06/09 04:36:40;;;;;;;4.45;2.83;;;18.30;45.50;;;;;;2298995;55;20964;-70
2023/06/09 04:39:09;;;;;;;5.32;2.72;;;18.30;45.90;;;;;;2535442;54;21048;-71
2023/06/09 04:41:37;;;;;;;4.03;2.60;;;18.30;46.00;;;;;;2512549;54;20971;-72
2023/06/09 04:44:05;;;;;;;4.00;2.55;;;18.40;46.30;;;;;;2273026;55;20943;-73
2023/06/09 04:46:41;;;;;;;4.82;2.70;;;18.40;46.30;;;;;;2273149;55;20959;-72
2023/06/09 04:49:10;;;;;;;4.95;3.12;;;18.40;46.40;;;;;;2535860;54;21814;-72
2023/06/09 04:51:41;;;;;;;4.93;2.83;;;18.40;46.50;;;;;;2272482;55;20966;-70
2023/06/09 04:54:09;;;;;;;4.57;2.60;;;18.50;46.80;;;;;;2503251;54;20985;-73
2023/06/09 04:56:40;;;;;;;4.30;2.50;;;18.50;46.60;;;;;;2273276;55;21006;-70
2023/06/09 04:59:07;;;;;;;4.20;2.30;;;18.50;46.60;;;;;;2272660;55;20985;-73
2023/06/09 05:01:34;;;;;;;6.28;2.90;;;18.60;46.70;;;;;;2503828;54;21037;-70
2023/06/09 05:04:01;;;;;;;5.55;3.50;;;18.60;46.80;;;;;;2523753;54;20944;-71
2023/06/09 05:06:28;;;;;;;5.37;3.65;;;18.60;47.10;;;;;;2313948;54;21035;-72
2023/06/09 05:08:55;;;;;;;4.97;3.22;;;18.70;47.30;;;;;;2553324;53;20959;-73
2023/06/09 05:11:22;;;;;;;4.00;2.58;;;18.70;47.20;;;;;;2313483;54;20987;-70
2023/06/09 05:13:48;;;;;;;5.82;3.12;;;18.70;47.10;;;;;;2313111;54;20964;-70
2023/06/09 05:16:15;;;;;;;4.60;2.60;;;18.80;47.20;;;;;;2544942;53;21056;-70
2023/06/09 05:18:43;;;;;;;4.37;2.67;;;18.80;47.40;;;;;;2530448;53;21925;-71
2023/06/09 05:21:12;;;;;;;4.57;2.72;;;18.80;47.40;;;;;;2553865;53;20912;-72
2023/06/09 05:23:39;;;;;;;3.80;2.53;;;18.90;48.00;;;;;;2515720;54;21385;-70
2023/06/09 05:26:06;;;;;;;4.85;3.10;;;19.00;47.50;;;;;;2279803;54;21450;-70
2023/06/09 05:28:32;;;;;;;5.03;3.10;;;19.00;47.50;;;;;;2290076;55;20990;-71
2023/06/09 05:30:59;;;;;;;4.93;3.40;;;19.00;47.60;;;;;;2274782;55;21487;-70
2023/06/09 05:33:26;;;;;;;4.53;3.15;;;19.10;47.80;;;;;;2300650;55;21544;-73
2023/06/09 05:35:53;;;;;;;4.97;3.60;;;19.10;47.80;;;;;;2287160;56;20971;-70
2023/06/09 05:38:23;;;;;;;5.50;3.50;;;19.20;48.00;;;;;;2495284;54;20998;-71
2023/06/09 05:40:52;;;;;;;5.07;3.22;;;19.20;47.90;;;;;;2283396;55;20975;-72
2023/06/09 05:43:18;;;;;;;7.05;3.35;;;19.20;48.00;;;;;;2282821;55;21421;-70
2023/06/09 05:45:47;;;;;;;4.25;2.60;;;19.30;48.20;;;;;;2515444;54;20996;-70
2023/06/09 05:48:16;;;;;;;8.75;3.30;;;19.40;48.40;;;;;;2516117;54;21035;-70
2023/06/09 05:50:43;;;;;;;4.53;3.05;;;19.40;48.20;;;;;;2514966;54;20978;-70
2023/06/09 05:53:10;;;;;;;5.03;3.35;;;19.40;48.20;;;;;;2285497;55;21768;-71
2023/06/09 05:55:38;;;;;;;3.95;2.60;;;19.50;48.30;;;;;;2307188;54;20951;-71
2023/06/09 05:58:04;;;;;;;5.05;3.05;;;19.60;48.30;;;;;;2553626;53;20927;-70
2023/06/09 06:00:30;;;;;;;4.62;3.00;;;19.60;48.30;;;;;;2294282;55;20936;-71
2023/06/09 06:03:00;;;;;;;4.85;3.05;;;19.60;48.30;;;;;;2550457;53;20896;-71
2023/06/09 06:05:27;;;;;;;4.20;2.70;;;19.70;48.30;;;;;;2553835;53;21035;-71
2023/06/09 06:07:55;;;;;;;5.12;3.30;;;19.80;48.40;;;;;;2553705;53;21378;-72
2023/06/09 06:10:22;;;;;;;5.40;3.08;;;19.80;48.30;;;;;;2313571;54;21798;-71
2023/06/09 06:12:48;;;;;;;4.47;2.97;;;19.80;48.30;;;;;;2313816;54;20936;-71
2023/06/09 06:15:15;;;;;;;4.62;2.90;;;19.90;48.40;;;;;;2553812;53;20948;-70
2023/06/09 06:17:43;;;;;;;4.90;3.05;;;20.00;48.40;;;;;;2553448;53;20999;-70
2023/06/09 06:20:13;;;;;;;4.70;3.30;;;20.00;48.50;;;;;;2553594;53;21040;-71
2023/06/09 06:22:43;;;;;;;5.53;3.08;;;20.10;48.60;;;;;;2313928;54;20959;-71
2023/06/09 06:25:13;;;;;;;4.97;3.12;;;20.10;48.60;;;;;;2553973;53;20991;-71
2023/06/09 06:27:40;;;;;;;5.40;3.03;;;20.10;48.70;;;;;;2287297;55;21798;-70
2023/06/09 06:30:09;;;;;;;4.03;2.50;;;20.20;48.80;;;;;;2515872;54;20986;-71
2023/06/09 06:32:36;;;;;;;5.37;3.80;;;20.20;48.70;;;;;;2520888;54;21690;-70
2023/06/09 06:35:03;;;;;;;4.80;2.90;;;20.30;49.00;;;;;;2280380;56;21018;-74
2023/06/09 06:37:34;;;;;;;4.28;2.75;;;20.40;49.00;;;;;;2513786;54;21416;-71
2023/06/09 06:40:00;;;;;;;4.78;2.97;;;20.50;49.00;;;;;;2543215;53;20975;-71
2023/06/09 06:42:29;;;;;;;5.85;3.35;;;20.50;49.00;;;;;;2310960;54;20942;-74
2023/06/09 06:44:56;;;;;;;4.57;2.92;;;20.70;49.10;;;;;;2515340;54;20989;-71
2023/06/09 06:47:23;;;;;;;4.72;3.20;;;20.60;49.00;;;;;;2515173;54;20950;-71
2023/06/09 06:49:50;;;;;;;4.87;3.00;;;20.70;49.00;;;;;;2516104;54;21419;-71
2023/06/09 06:52:16;;;;;;;4.72;2.85;;;20.80;49.10;;;;;;2515714;54;20931;-74
2023/06/09 06:54:42;;;;;;;5.12;3.17;;;20.80;49.00;;;;;;2546174;53;20940;-70
2023/06/09 06:57:09;;;;;;;4.62;3.00;;;20.90;49.10;;;;;;2313302;54;20944;-70
2023/06/09 06:59:35;;;;;;;4.43;3.20;;;20.90;49.10;;;;;;2291184;55;21000;-70
2023/06/09 07:02:02;;;;;;;4.50;2.60;;;21.00;49.10;;;;;;2312290;54;21100;-70
2023/06/09 07:04:29;;;;;;;4.22;2.85;;;21.10;49.10;;;;;;2553523;53;21012;-70
2023/06/09 07:06:56;;;;;;;5.75;3.20;;;21.20;49.30;;;;;;2313677;54;21004;-69
2023/06/09 07:09:24;;;;;;;4.62;2.92;;;21.30;49.30;;;;;;2313986;54;20929;-70
2023/06/09 07:11:50;;;;;;;3.95;2.67;;;21.30;49.20;;;;;;2314089;54;20979;-71
2023/06/09 07:14:16;;;;;;;4.15;3.08;;;21.40;49.30;;;;;;2545591;53;20956;-70
2023/06/09 07:16:46;;;;;;;5.22;3.62;;;21.50;49.40;;;;;;2529529;54;21820;-71
2023/06/09 07:19:12;;;;;;;5.70;3.60;;;21.50;49.40;;;;;;2553436;53;20920;-71
2023/06/09 07:21:38;;;;;;;4.80;3.33;;;21.60;49.30;;;;;;2553808;53;21717;-71
2023/06/09 07:24:05;;;;;;;4.78;3.20;;;21.70;49.40;;;;;;2314343;54;20931;-69
2023/06/09 07:26:32;;;;;;;5.05;3.30;;;21.80;49.40;;;;;;2313974;54;21429;-70
2023/06/09 07:28:59;;;;;;;5.18;3.42;;;21.90;49.60;;;;;;2313712;54;21048;-72
2023/06/09 07:31:25;;;;;;;6.25;3.78;;;21.90;49.60;;;;;;2313662;54;21444;-69
2023/06/09 07:33:52;;;;;;;5.80;3.58;;;22.00;49.60;;;;;;2552133;53;21019;-71
2023/06/09 07:36:19;;;;;;;6.93;3.30;;;22.10;49.50;;;;;;2288266;55;20936;-71
2023/06/09 07:39:00;;;;;;;6.25;3.28;;;22.20;49.50;;;;;;2313694;54;21040;-71
2023/06/09 07:41:28;;;;;;;4.85;3.20;;;22.30;49.80;;;;;;2553420;53;21493;-70
2023/06/09 07:43:54;;;;;;;4.03;2.62;;;22.40;49.50;;;;;;2553849;53;21024;-71
2023/06/09 07:46:25;;;;;;;5.60;3.15;;;22.50;49.50;;;;;;2290909;55;20941;-71
2023/06/09 07:52:20;;;;;;;4.37;2.97;;;22.70;49.80;;;;;;2553522;53;20988;-71
2023/06/09 08:01:53;;;;;;;4.72;3.17;;;23.00;49.50;;;;;;2530888;53;20981;-70
2023/06/09 08:04:41;;;;;;;4.57;3.33;;;23.20;50.10;;;;;;2529220;54;21047;-74
2023/06/09 08:07:11;;;;;;;4.72;3.40;;;23.20;49.40;;;;;;2550704;53;20984;-73
2023/06/09 08:09:49;;;;;;;4.37;2.95;;;23.30;49.50;;;;;;2544175;53;21019;-71
2023/06/09 08:12:46;;;;;;;4.68;2.80;;;23.40;49.50;;;;;;2540777;54;20975;-71
2023/06/09 08:15:36;;;;;;;4.57;2.62;;;23.50;49.70;;;;;;2313534;54;20948;-74
2023/06/09 08:21:45;;;;;;;4.00;2.25;;;23.60;49.70;;;;;;2312379;54;20980;-70
2023/06/09 08:57:50;;;;;;;;;;;;;;;;;;;;;
2023/06/09 09:50:24;;;;;;;3.03;1.90;;;26.20;47.70;;;;;;2411097;56;21018;-72
2023/06/09 09:53:41;;;;;;;;;;;;;;;;;;;;;
2023/06/09 09:57:08;;;;;;;;;;;;;;;;;;;;;
2023/06/09 10:16:06;;;;;;;;;;;;;;;;;;;;;
2023/06/09 10:19:43;;;;;;;3.15;2.10;;;27.30;46.70;;;;;;2517966;54;21460;-71
2023/06/09 10:23:21;;;;;;;4.03;2.53;;;27.80;46.10;;;;;;2410752;57;20997;-74
2023/06/09 10:28:57;;;;;;;3.95;2.83;;;27.80;45.80;;;;;;2144687;59;21173;-73
2023/06/09 10:58:43;;;;;;;6.60;2.70;;;28.70;44.90;;;;;;2265995;61;21093;-72
2023/06/09 11:02:08;;;;;;;3.20;2.03;;;28.80;44.80;;;;;;2339604;56;21118;-72
2023/06/09 11:08:52;;;;;;;3.70;2.53;;;29.10;44.20;;;;;;2303777;54;20975;-74
2023/06/09 11:16:29;;;;;;;3.97;2.30;;;29.40;43.60;;;;;;2530131;54;20983;-72
2023/06/09 11:20:26;;;;;;;3.60;2.55;;;29.40;43.90;;;;;;2308866;55;21494;-72
2023/06/09 11:32:38;;;;;;;3.60;2.12;;;29.80;43.40;;;;;;2441875;54;21044;-72
2023/06/09 11:36:11;;;;;;;;;;;;;;;;;;;;;
2023/06/09 12:21:54;;;;;;;3.30;2.10;;;30.20;42.60;;;;;;2221445;55;28928;-71
2023/06/09 12:26:28;;;;;;;3.15;2.08;;;31.40;40.30;;;;;;2416960;55;21030;-74
2023/06/09 12:30:36;;;;;;;;;;;;;;;;;;;;;
2023/06/09 12:34:25;;;;;;;;;;;;;;;;;;;;;
2023/06/09 12:53:01;;;;;;;2.78;1.67;;;31.80;39.50;;;;;;2372423;56;21540;-73
2023/06/09 14:21:27;;;;;;;1.95;1.00;;;32.30;37.50;;;;;;2412146;57;21506;-73
2023/06/09 14:24:30;;;;;;;;;;;;;;;;;;;;;
2023/06/09 14:28:12;;;;;;;2.20;1.08;;;32.00;36.10;;;;;;2401780;57;20972;-72
2023/06/09 14:31:34;;;;;;;2.35;1.25;;;31.90;36.30;;;;;;2413464;57;20966;-72
2023/06/09 14:36:10;;;;;;;;;;;;;;;;;;;;;
2023/06/09 15:54:00;;;;;;;2.60;1.50;;;31.90;37.00;;;;;;2452416;55;20970;-73
2023/06/09 15:57:22;;;;;;;2.37;1.40;;;31.90;36.90;;;;;;2398202;57;21113;-73
2023/06/09 16:00:31;;;;;;;2.60;1.27;;;31.90;37.00;;;;;;2272763;58;21050;-73
2023/06/09 16:03:48;;;;;;;;;;;;;;;;;;;;;
2023/06/09 16:07:42;;;;;;;2.83;1.27;;;32.00;36.70;;;;;;2293157;57;21059;-74
2023/06/09 16:11:37;;;;;;;;;;;;;;;;;;;;;
2023/06/09 16:16:24;;;;;;;2.92;1.30;;;32.10;36.10;;;;;;2480735;54;21114;-74
2023/06/09 16:24:11;;;;;;;;;;;;;;;;;;;;;
2023/06/09 16:27:02;;;;;;;2.00;1.10;;;32.30;35.90;;;;;;2507853;55;21558;-76
2023/06/09 16:33:29;;;;;;;;;;;32.40;36.70;;;;;;2280799;55;21031;-76
2023/06/09 16:36:47;;;;;;;2.33;1.10;;;32.50;36.90;;;;;;2452346;55;20186;-75
2023/06/09 16:44:20;;;;;;;;;;;;;;;;;;;;;
2023/06/09 16:48:11;;;;;;;3.12;1.67;;;32.50;36.50;;;;;;2424848;55;21967;-74
2023/06/09 17:38:17;;;;;;;;;;;;;;;;;;;;;
2023/06/09 17:41:34;;;;;;;1.98;1.05;;;32.70;35.50;;;;;;2483741;54;21098;-74
2023/06/09 17:45:14;;;;;;;2.20;1.10;;;32.60;35.40;;;;;;2519224;54;22398;-74
2023/06/09 17:48:43;;;;;;;;;;;;;;;;;;;;;
2023/06/09 17:51:35;;;;;;;;;;;32.80;35.70;;;;;;2283953;55;21082;-74
2023/06/09 17:59:26;;;;;;;1.30;0.73;;;33.30;35.40;;;;;;2517628;54;21038;-74
2023/06/09 18:03:27;;;;;;;2.20;1.00;;;33.60;34.90;;;;;;2528667;53;20966;-74
2023/06/09 18:06:37;;;;;;;2.28;1.00;;;34.00;35.20;;;;;;2460908;54;21523;-73
2023/06/09 18:14:38;;;;;;;1.80;0.90;;;34.60;33.40;;;;;;2504393;54;21099;-75
2023/06/09 18:18:02;;;;;;;2.67;1.05;;;35.10;33.20;;;;;;2509951;53;20979;-74
2023/06/09 18:20:59;;;;;;;2.40;0.98;;;35.30;32.70;;;;;;2544872;53;20956;-73
2023/06/09 18:24:45;;;;;;;2.10;1.12;;;35.50;33.40;;;;;;2543770;53;22260;-76
2023/06/09 18:27:29;;;;;;;2.22;1.10;;;35.60;32.00;;;;;;2318897;54;21168;-73
2023/06/09 18:30:08;;;;;;;1.85;0.90;;;35.70;31.10;;;;;;2321944;54;22327;-73
2023/06/09 18:32:35;;;;;;;2.80;1.25;;;35.70;30.80;;;;;;2557707;53;20960;-72
2023/06/09 18:38:35;;;;;;;1.92;1.00;;;35.60;30.80;;;;;;2321296;54;20996;-74
2023/06/09 18:41:14;;;;;;;2.08;1.02;;;35.50;30.70;;;;;;2548578;53;21021;-74
2023/06/09 18:43:46;;;;;;;2.75;1.10;;;35.40;30.60;;;;;;2560441;53;20988;-74
2023/06/09 18:53:46;;;;;;;2.33;1.02;;;35.30;30.70;;;;;;2316954;53;20994;-75
2023/06/09 18:56:13;;;;;;;1.70;0.77;;;34.80;30.70;;;;;;2319810;54;20955;-74
2023/06/09 18:59:01;;;;;;;3.97;1.00;;;34.60;30.60;;;;;;2551934;53;21027;-74
2023/06/09 19:05:50;;;;;;;1.77;0.90;;;34.10;30.30;;;;;;2562092;53;20960;-74
2023/06/09 19:08:22;;;;;;;2.00;0.95;;;33.90;30.30;;;;;;2556688;53;20939;-73
2023/06/09 19:11:00;;;;;;;2.20;1.05;;;33.70;30.50;;;;;;2516945;54;21619;-72
2023/06/09 19:13:42;;;;;;;1.95;0.88;;;33.50;30.40;;;;;;2545746;53;21517;-77
2023/06/09 19:16:59;;;;;;;1.83;0.80;;;33.30;30.20;;;;;;2564172;53;21832;-73
2023/06/09 19:19:26;;;;;;;1.77;0.80;;;33.10;30.20;;;;;;2521973;53;20956;-73
2023/06/09 19:22:10;;;;;;;2.60;1.20;;;32.90;30.60;;;;;;2509330;54;21067;-73
2023/06/09 19:24:57;;;;;;;2.22;1.00;;;32.70;30.20;;;;;;2266145;55;20968;-73
2023/06/09 19:27:53;;;;;;;;;;;;;;;;;;;;;
2023/06/09 19:30:48;;;;;;;1.98;0.90;;;32.40;30.40;;;;;;2547698;54;22040;-72
2023/06/09 19:33:15;;;;;;;2.20;1.15;;;32.20;30.80;;;;;;2311031;55;20930;-76
2023/06/09 19:35:43;;;;;;;2.20;0.88;;;32.00;30.70;;;;;;2311590;55;20994;-72
2023/06/09 19:38:33;;;;;;;;;;;31.90;30.90;;;;;;2547437;53;21154;-74
2023/06/09 19:41:44;;;;;;;1.95;0.93;;;31.70;30.90;;;;;;2545588;54;20076;-74
2023/06/09 19:44:42;;;;;;;1.80;0.80;;;31.60;30.80;;;;;;2537923;54;20959;-73
2023/06/09 19:52:21;;;;;;;2.03;0.88;;;31.20;31.00;;;;;;2507954;53;21026;-73
2023/06/09 19:55:27;;;;;;;;;;;;;;;;;;;;;
2023/06/09 19:58:50;;;;;;;1.80;0.90;;;30.80;31.20;;;;;;2521180;53;21010;-77
2023/06/09 20:01:24;;;;;;;1.80;0.80;;;30.70;31.40;;;;;;2525401;53;20992;-73
2023/06/09 20:04:34;;;;;;;2.60;1.00;;;30.50;31.60;;;;;;2493142;54;21053;-73
2023/06/09 20:08:09;;;;;;;;;;;;;;;;;;;;;
2023/06/09 20:11:21;;;;;;;1.77;0.90;;;30.30;31.80;;;;;;2514908;54;21069;-73
2023/06/09 20:15:33;;;;;;;2.20;1.00;;;30.10;32.00;;;;;;2468384;54;21001;-73
2023/06/09 20:18:19;;;;;;;1.70;0.70;;;30.00;31.80;;;;;;2501326;54;21395;-73
2023/06/09 20:21:22;;;;;;;2.30;1.08;;;29.80;32.10;;;;;;2546178;54;21000;-74
2023/06/09 20:26:08;;;;;;;3.92;1.40;;;29.70;32.50;;;;;;2547962;54;21014;-74
2023/06/09 20:28:47;;;;;;;2.55;1.10;;;29.60;32.90;;;;;;2527865;54;21101;-73
2023/06/09 20:32:02;;;;;;;2.40;0.95;;;29.50;32.90;;;;;;2466792;55;20977;-73
2023/06/09 20:35:21;;;;;;;;;;;;;;;;;;;;;
2023/06/09 20:38:26;;;;;;;3.00;1.00;;;29.30;33.10;;;;;;2460426;55;21638;-73
2023/06/09 21:06:08;;;;;;;1.77;0.85;;;29.20;33.30;;;;;;2383624;57;21112;-73
2023/06/09 21:42:27;;;;;;;1.98;0.90;;;29.10;33.20;;;;;;2294628;56;28282;-73
2023/06/09 22:27:01;;;;;;;;;;;;;;;;;;;;;
2023/06/09 22:30:16;;;;;;;2.12;0.90;;;27.30;34.70;;;;;;2348642;57;21120;-72
2023/06/09 22:33:14;;;;;;;2.17;1.23;;;27.20;34.70;;;;;;2247220;61;21039;-73
2023/06/09 22:36:14;;;;;;;2.50;1.30;;;27.20;35.10;;;;;;2241567;61;21335;-72
2023/06/09 23:30:29;;;;;;;2.30;1.05;;;25.90;35.50;;;;;;2391079;56;21564;-70
2023/06/09 23:33:36;;;;;;;2.12;1.00;;;25.70;35.60;;;;;;2346888;58;21572;-71
2023/06/09 23:37:06;;;;;;;2.50;1.30;;;25.60;35.90;;;;;;2332986;57;21110;-72
2023/06/09 23:39:58;;;;;;;2.80;1.25;;;25.40;36.10;;;;;;2358397;58;21081;-71
2023/06/09 23:56:48;;;;;;;;;;;;;;;;;;;;;
2023/06/09 23:59:19;;;;;;;1.87;0.90;;;24.80;36.30;;;;;;2455420;55;20988;-71
